createdAt,value
2017-11-07T00:02:03.701Z,5.60
2017-11-07T00:04:31.256Z,5.70
2017-11-07T00:06:58.754Z,5.70
2017-11-07T00:09:26.302Z,5.60
2017-11-07T00:11:54.567Z,5.70
2017-11-07T00:14:22.071Z,5.70
2017-11-07T00:16:49.692Z,5.70
2017-11-07T00:19:18.006Z,5.80
2017-11-07T00:21:45.560Z,5.60
2017-11-07T00:24:13.139Z,5.70
2017-11-07T00:26:40.806Z,5.70
2017-11-07T00:29:08.320Z,5.70
2017-11-07T00:31:35.964Z,5.60
2017-11-07T00:34:03.652Z,5.60
2017-11-07T00:36:31.153Z,5.60
2017-11-07T00:38:58.699Z,5.50
2017-11-07T00:41:26.280Z,5.50
2017-11-07T00:43:53.840Z,5.50
2017-11-07T00:46:21.360Z,5.50
2017-11-07T00:48:48.957Z,5.50
2017-11-07T00:51:16.646Z,5.50
2017-11-07T00:53:44.163Z,5.50
2017-11-07T00:56:11.684Z,5.50
2017-11-07T00:58:40.223Z,5.70
2017-11-07T01:01:07.815Z,5.70
2017-11-07T01:03:35.360Z,5.80
2017-11-07T01:06:03.053Z,5.80
2017-11-07T01:08:30.560Z,5.80
2017-11-07T01:10:58.068Z,5.90
2017-11-07T01:13:25.719Z,5.90
2017-11-07T01:15:54.040Z,6.00
2017-11-07T01:18:21.555Z,6.00
2017-11-07T01:20:49.108Z,6.10
2017-11-07T01:23:17.375Z,6.00
2017-11-07T01:25:45.080Z,6.10
2017-11-07T01:28:12.615Z,5.90
2017-11-07T01:30:40.133Z,5.90
2017-11-07T01:33:07.792Z,5.80
2017-11-07T01:35:35.378Z,5.90
2017-11-07T01:38:02.976Z,5.90
2017-11-07T01:40:31.356Z,5.80
2017-11-07T01:42:58.939Z,5.80
2017-11-07T01:45:26.507Z,5.80
2017-11-07T01:47:54.511Z,5.80
2017-11-07T01:50:22.016Z,5.80
2017-11-07T01:52:49.561Z,5.80
2017-11-07T01:55:17.113Z,5.70
2017-11-07T01:57:44.962Z,5.70
2017-11-07T02:00:12.660Z,5.70
2017-11-07T02:02:40.200Z,5.60
2017-11-07T02:05:08.479Z,5.80
2017-11-07T02:07:36.798Z,5.60
2017-11-07T02:10:04.907Z,5.60
2017-11-07T02:12:32.421Z,5.60
2017-11-07T02:15:00.329Z,5.70
2017-11-07T02:17:28.649Z,5.70
2017-11-07T02:19:56.164Z,5.60
2017-11-07T02:22:23.726Z,5.60
2017-11-07T02:24:51.255Z,5.60
2017-11-07T02:27:18.905Z,5.60
2017-11-07T02:29:46.507Z,5.60
2017-11-07T02:32:14.079Z,5.60
2017-11-07T02:34:41.653Z,5.60
2017-11-07T02:37:09.200Z,5.50
2017-11-07T02:39:36.849Z,5.50
2017-11-07T02:42:04.447Z,5.60
2017-11-07T02:44:32.120Z,5.50
2017-11-07T02:46:59.648Z,5.50
2017-11-07T02:49:27.208Z,5.50
2017-11-07T02:51:55.588Z,5.40
2017-11-07T02:54:23.240Z,5.40
2017-11-07T02:56:50.855Z,5.40
2017-11-07T02:59:18.441Z,5.40
2017-11-07T03:01:45.959Z,5.40
2017-11-07T03:04:13.483Z,5.40
2017-11-07T03:06:41.047Z,5.30
2017-11-07T03:09:09.327Z,5.30
2017-11-07T03:11:37.602Z,5.20
2017-11-07T03:14:05.938Z,5.20
2017-11-07T03:16:33.447Z,5.20
2017-11-07T03:19:01.440Z,5.10
2017-11-07T03:21:28.971Z,5.20
2017-11-07T03:23:56.500Z,5.10
2017-11-07T03:26:24.106Z,5.10
2017-11-07T03:28:51.614Z,5.10
2017-11-07T03:31:19.127Z,5.10
2017-11-07T03:33:46.684Z,5.10
2017-11-07T03:36:14.214Z,5.10
2017-11-07T03:38:42.571Z,5.20
2017-11-07T03:41:10.134Z,5.20
2017-11-07T03:43:37.630Z,5.20
2017-11-07T03:46:05.381Z,5.20
2017-11-07T03:48:33.078Z,5.20
2017-11-07T03:51:00.692Z,5.20
2017-11-07T03:53:28.199Z,5.20
2017-11-07T03:55:55.754Z,5.10
2017-11-07T03:58:23.387Z,5.10
2017-11-07T04:00:51.690Z,5.20
2017-11-07T04:03:19.301Z,5.20
2017-11-07T04:05:46.803Z,5.20
2017-11-07T04:08:14.306Z,5.20
2017-11-07T04:10:41.911Z,5.20
2017-11-07T04:13:10.215Z,5.10
2017-11-07T04:15:37.725Z,5.10
2017-11-07T04:18:05.280Z,5.10
2017-11-07T04:20:32.895Z,5.10
2017-11-07T04:23:00.428Z,5.10
2017-11-07T04:25:28.407Z,5.00
2017-11-07T04:27:55.919Z,5.00
2017-11-07T04:30:23.602Z,5.00
2017-11-07T04:32:51.919Z,5.00
2017-11-07T04:35:19.820Z,5.00
2017-11-07T04:37:47.330Z,5.00
2017-11-07T04:40:15.351Z,5.00
2017-11-07T04:42:42.982Z,5.00
2017-11-07T04:45:10.491Z,5.00
2017-11-07T04:47:38.038Z,5.00
2017-11-07T04:50:05.791Z,5.00
2017-11-07T04:52:33.323Z,5.00
2017-11-07T04:55:00.899Z,5.00
2017-11-07T04:57:28.412Z,5.00
2017-11-07T04:59:55.987Z,5.00
2017-11-07T05:02:23.547Z,5.00
2017-11-07T05:04:51.322Z,5.00
2017-11-07T05:07:18.891Z,5.00
2017-11-07T05:09:46.455Z,5.10
2017-11-07T05:12:14.335Z,5.00
2017-11-07T05:14:41.892Z,5.00
2017-11-07T05:17:09.426Z,5.10
2017-11-07T05:19:37.127Z,5.10
2017-11-07T05:22:05.175Z,5.10
2017-11-07T05:24:32.799Z,5.10
2017-11-07T05:27:00.521Z,5.10
2017-11-07T05:29:28.075Z,5.10
2017-11-07T05:31:55.609Z,5.10
2017-11-07T05:34:23.138Z,5.20
2017-11-07T05:36:50.716Z,5.20
2017-11-07T05:39:18.223Z,5.30
2017-11-07T05:41:45.739Z,5.30
2017-11-07T05:44:13.554Z,5.30
2017-11-07T05:46:41.073Z,5.30
2017-11-07T05:49:08.588Z,5.30
2017-11-07T05:51:37.015Z,5.30
2017-11-07T05:54:04.522Z,5.30
2017-11-07T05:56:32.802Z,5.40
2017-11-07T05:59:01.130Z,5.40
2017-11-07T06:01:28.630Z,5.40
2017-11-07T06:03:56.148Z,5.40
2017-11-07T06:06:23.688Z,5.40
2017-11-07T06:08:51.211Z,5.40
2017-11-07T06:11:18.742Z,5.50
2017-11-07T06:13:46.406Z,5.50
2017-11-07T06:16:13.955Z,5.50
2017-11-07T06:18:41.573Z,5.50
2017-11-07T06:21:09.075Z,5.50
2017-11-07T06:23:36.628Z,5.50
2017-11-07T06:26:04.382Z,5.50
2017-11-07T06:28:31.901Z,5.50
2017-11-07T06:30:59.416Z,5.50
2017-11-07T06:33:26.995Z,5.50
2017-11-07T06:35:54.538Z,5.50
2017-11-07T06:38:22.207Z,5.60
2017-11-07T06:40:49.827Z,5.60
2017-11-07T06:43:17.361Z,5.70
2017-11-07T06:45:44.862Z,5.70
2017-11-07T06:48:12.487Z,5.80
2017-11-07T06:50:40.846Z,5.80
2017-11-07T06:53:08.374Z,5.90
2017-11-07T06:55:36.528Z,5.80
2017-11-07T06:58:04.347Z,5.80
2017-11-07T07:00:32.622Z,5.70
2017-11-07T07:03:01.047Z,5.60
2017-11-07T07:05:28.559Z,5.60
2017-11-07T07:07:56.839Z,5.60
2017-11-07T07:10:25.160Z,5.50
2017-11-07T07:12:52.669Z,5.50
2017-11-07T07:15:20.316Z,5.60
2017-11-07T07:17:47.876Z,5.60
2017-11-07T07:20:15.399Z,5.50
2017-11-07T07:22:42.927Z,5.50
2017-11-07T07:25:10.547Z,5.50
2017-11-07T07:27:38.332Z,5.50
2017-11-07T07:30:05.943Z,5.50
2017-11-07T07:32:33.498Z,5.50
2017-11-07T07:35:01.156Z,5.50
2017-11-07T07:37:28.809Z,5.40
2017-11-07T07:39:56.460Z,5.50
2017-11-07T07:42:24.039Z,5.50
2017-11-07T07:44:51.599Z,5.50
2017-11-07T07:47:19.183Z,5.60
2017-11-07T07:49:46.744Z,5.60
2017-11-07T07:52:14.390Z,5.60
2017-11-07T07:54:42.311Z,5.60
2017-11-07T07:57:09.816Z,5.60
2017-11-07T07:59:37.890Z,5.70
2017-11-07T08:02:05.457Z,5.70
2017-11-07T08:04:32.976Z,5.70
2017-11-07T08:07:00.549Z,5.70
2017-11-07T08:09:28.158Z,5.70
2017-11-07T08:11:55.755Z,5.80
2017-11-07T08:14:23.306Z,5.80
2017-11-07T08:16:51.665Z,5.90
2017-11-07T08:19:19.175Z,5.90
2017-11-07T08:21:46.714Z,6.00
2017-11-07T08:24:15.037Z,6.00
2017-11-07T08:26:42.609Z,6.00
2017-11-07T08:29:10.607Z,6.10
2017-11-07T08:31:38.185Z,6.00
2017-11-07T08:34:05.696Z,6.10
2017-11-07T08:36:33.214Z,6.10
2017-11-07T08:39:01.240Z,6.10
2017-11-07T08:41:28.767Z,6.10
2017-11-07T08:43:56.280Z,6.00
2017-11-07T08:46:25.282Z,6.00
2017-11-07T08:48:52.805Z,6.00
2017-11-07T08:51:20.550Z,6.00
2017-11-07T08:53:48.150Z,6.10
2017-11-07T08:56:15.708Z,6.10
2017-11-07T08:58:43.437Z,6.20
2017-11-07T09:01:11.036Z,6.30
2017-11-07T09:03:38.576Z,6.40
2017-11-07T09:06:06.137Z,6.40
2017-11-07T09:08:33.764Z,6.30
2017-11-07T09:11:01.280Z,6.30
2017-11-07T09:13:28.833Z,6.40
2017-11-07T09:15:57.169Z,6.70
2017-11-07T09:18:24.731Z,6.70
2017-11-07T09:20:52.244Z,6.70
2017-11-07T09:23:20.723Z,6.70
2017-11-07T09:25:48.247Z,6.60
2017-11-07T09:28:15.764Z,6.80
2017-11-07T09:30:43.350Z,6.90
2017-11-07T09:33:10.871Z,7.10
2017-11-07T09:35:38.490Z,7.40
2017-11-07T09:38:06.315Z,7.30
2017-11-07T09:40:33.933Z,7.20
2017-11-07T09:43:02.313Z,7.50
2017-11-07T09:45:29.970Z,7.50
2017-11-07T09:47:57.495Z,7.70
2017-11-07T09:50:25.511Z,7.50
2017-11-07T09:52:53.048Z,7.40
2017-11-07T09:55:20.647Z,7.40
2017-11-07T09:57:48.238Z,7.50
2017-11-07T10:00:15.936Z,7.70
2017-11-07T10:02:43.501Z,7.70
2017-11-07T10:05:11.003Z,7.60
2017-11-07T10:07:38.765Z,7.80
2017-11-07T10:10:06.359Z,7.80
2017-11-07T10:12:33.992Z,7.70
2017-11-07T10:15:01.547Z,7.80
2017-11-07T10:17:29.055Z,7.90
2017-11-07T10:19:56.556Z,7.90
2017-11-07T10:22:24.275Z,8.00
2017-11-07T10:24:51.783Z,8.10
2017-11-07T10:27:19.375Z,8.20
2017-11-07T10:29:47.005Z,8.20
2017-11-07T10:32:14.532Z,8.00
2017-11-07T10:34:42.097Z,8.00
2017-11-07T10:37:10.419Z,8.00
2017-11-07T10:39:38.136Z,8.00
2017-11-07T10:42:05.772Z,8.00
2017-11-07T10:44:33.336Z,8.00
2017-11-07T10:47:00.846Z,8.00
2017-11-07T10:49:28.355Z,8.00
2017-11-07T10:51:56.015Z,8.10
2017-11-07T10:54:23.520Z,8.00
2017-11-07T10:56:51.050Z,8.10
2017-11-07T10:59:19.387Z,8.00
2017-11-07T11:01:46.947Z,7.90
2017-11-07T11:04:14.650Z,7.90
2017-11-07T11:06:43.078Z,7.70
2017-11-07T11:09:10.890Z,7.70
2017-11-07T11:11:38.400Z,7.60
2017-11-07T11:14:05.979Z,7.50
2017-11-07T11:16:33.639Z,7.60
2017-11-07T11:19:01.160Z,7.60
2017-11-07T11:21:28.980Z,7.60
2017-11-07T11:23:56.487Z,7.60
2017-11-07T11:26:24.043Z,7.60
2017-11-07T11:28:51.836Z,7.60
2017-11-07T11:31:19.374Z,7.70
2017-11-07T11:33:46.927Z,7.70
2017-11-07T11:36:14.530Z,7.60
2017-11-07T11:38:42.083Z,7.80
2017-11-07T11:41:09.643Z,7.80
2017-11-07T11:43:37.360Z,7.90
2017-11-07T11:46:04.878Z,7.90
2017-11-07T11:48:32.636Z,7.80
2017-11-07T11:51:00.147Z,7.80
2017-11-07T11:53:27.748Z,7.80
2017-11-07T11:55:55.367Z,7.90
2017-11-07T11:58:22.876Z,8.00
2017-11-07T12:00:50.402Z,8.00
2017-11-07T12:03:18.612Z,7.90
2017-11-07T12:05:46.222Z,7.90
2017-11-07T12:08:13.731Z,7.90
2017-11-07T12:10:41.394Z,7.90
2017-11-07T12:13:08.943Z,7.90
2017-11-07T12:15:36.458Z,7.90
2017-11-07T12:18:04.787Z,7.80
2017-11-07T12:20:32.420Z,7.80
2017-11-07T12:22:59.919Z,7.90
2017-11-07T12:25:27.808Z,8.00
2017-11-07T12:27:55.323Z,8.00
2017-11-07T12:30:22.827Z,8.00
2017-11-07T12:32:51.349Z,7.90
2017-11-07T12:35:18.913Z,7.90
2017-11-07T12:37:46.430Z,7.90
2017-11-07T12:40:14.008Z,8.00
2017-11-07T12:42:41.643Z,8.00
2017-11-07T12:45:09.161Z,8.00
2017-11-07T12:47:36.951Z,8.00
2017-11-07T12:50:16.406Z,8.00
2017-11-07T12:52:44.133Z,8.10
2017-11-07T12:55:11.703Z,8.00
2017-11-07T12:57:40.379Z,8.20
2017-11-07T13:00:08.149Z,8.20
2017-11-07T13:02:35.668Z,8.10
2017-11-07T13:05:03.265Z,8.10
2017-11-07T13:07:30.964Z,8.10
2017-11-07T13:09:58.464Z,8.10
2017-11-07T13:12:25.972Z,8.10
2017-11-07T13:14:53.722Z,8.00
2017-11-07T13:17:21.438Z,7.90
2017-11-07T13:19:49.044Z,8.00
2017-11-07T13:22:16.628Z,8.00
2017-11-07T13:24:45.191Z,8.10
2017-11-07T13:27:12.797Z,8.10
2017-11-07T13:29:40.379Z,8.20
2017-11-07T13:32:07.901Z,8.20
2017-11-07T13:34:36.243Z,8.10
2017-11-07T13:37:04.136Z,8.10
2017-11-07T13:39:31.650Z,8.10
2017-11-07T13:41:59.243Z,8.10
2017-11-07T13:44:26.873Z,8.10
2017-11-07T13:46:54.370Z,8.10
2017-11-07T13:49:21.896Z,8.10
2017-11-07T13:51:49.485Z,8.00
2017-11-07T13:54:17.095Z,8.00
2017-11-07T13:56:44.602Z,8.00
2017-11-07T13:59:12.273Z,7.90
2017-11-07T14:01:39.818Z,8.00
2017-11-07T14:04:07.336Z,8.00
2017-11-07T14:06:35.699Z,8.10
2017-11-07T14:09:03.288Z,8.00
2017-11-07T14:11:30.983Z,8.00
2017-11-07T14:13:58.503Z,7.90
2017-11-07T14:16:26.087Z,8.00
2017-11-07T14:18:53.595Z,8.00
2017-11-07T14:21:21.248Z,8.00
2017-11-07T14:23:48.799Z,8.10
2017-11-07T14:26:17.119Z,8.10
2017-11-07T14:28:44.652Z,8.10
2017-11-07T14:31:12.247Z,8.00
2017-11-07T14:33:39.751Z,8.00
2017-11-07T14:36:07.364Z,7.90
2017-11-07T14:38:35.160Z,7.90
2017-11-07T14:41:02.918Z,7.90
2017-11-07T14:43:30.518Z,7.80
2017-11-07T14:45:58.866Z,7.80
2017-11-07T14:48:27.117Z,7.80
2017-11-07T14:50:54.626Z,7.70
2017-11-07T14:53:22.195Z,7.70
2017-11-07T14:55:50.707Z,7.80
2017-11-07T14:58:18.219Z,7.80
2017-11-07T15:00:45.808Z,7.80
2017-11-07T15:03:13.272Z,7.70
2017-11-07T15:05:40.782Z,7.70
2017-11-07T15:08:08.501Z,7.70
2017-11-07T15:10:36.047Z,7.70
2017-11-07T15:13:03.687Z,7.70
2017-11-07T15:15:32.102Z,7.60
2017-11-07T15:17:59.965Z,7.60
2017-11-07T15:20:27.755Z,7.60
2017-11-07T15:22:55.343Z,7.60
2017-11-07T15:25:22.871Z,7.60
2017-11-07T15:27:50.388Z,7.70
2017-11-07T15:30:17.975Z,7.60
2017-11-07T15:32:45.500Z,7.50
2017-11-07T15:35:13.119Z,7.50
2017-11-07T15:37:40.789Z,7.50
2017-11-07T15:40:08.392Z,7.50
2017-11-07T15:42:36.679Z,7.50
2017-11-07T15:45:04.472Z,7.50
2017-11-07T15:47:32.002Z,7.50
2017-11-07T15:49:59.559Z,7.60
2017-11-07T15:52:28.161Z,7.50
2017-11-07T15:54:55.720Z,7.60
2017-11-07T15:57:23.381Z,7.60
2017-11-07T15:59:51.108Z,7.60
2017-11-07T16:02:18.683Z,7.60
2017-11-07T16:04:46.447Z,7.60
2017-11-07T16:07:14.041Z,7.60
2017-11-07T16:09:41.806Z,7.60
2017-11-07T16:12:09.322Z,7.70
2017-11-07T16:14:36.883Z,7.70
2017-11-07T16:17:05.159Z,7.60
2017-11-07T16:19:33.426Z,7.60
2017-11-07T16:22:01.752Z,7.60
2017-11-07T16:24:29.304Z,7.60
2017-11-07T16:26:56.870Z,7.50
2017-11-07T16:29:24.407Z,7.60
2017-11-07T16:31:52.685Z,7.60
2017-11-07T16:34:20.199Z,7.50
2017-11-07T16:36:47.743Z,7.50
2017-11-07T16:39:15.655Z,7.50
2017-11-07T16:41:43.344Z,7.50
2017-11-07T16:44:10.883Z,7.40
2017-11-07T16:46:39.151Z,7.30
2017-11-07T16:49:07.446Z,7.30
2017-11-07T16:51:35.570Z,7.30
2017-11-07T16:54:03.125Z,7.30
2017-11-07T16:56:30.691Z,7.20
2017-11-07T16:58:58.590Z,7.20
2017-11-07T17:01:26.906Z,7.20
2017-11-07T17:03:54.416Z,7.20
2017-11-07T17:06:22.010Z,7.20
2017-11-07T17:08:49.680Z,7.20
2017-11-07T17:11:17.254Z,7.20
2017-11-07T17:13:44.912Z,7.20
2017-11-07T17:16:12.455Z,7.10
2017-11-07T17:18:40.138Z,7.10
2017-11-07T17:21:07.862Z,7.10
2017-11-07T17:23:35.396Z,7.20
2017-11-07T17:26:02.906Z,7.20
2017-11-07T17:28:30.504Z,7.20
2017-11-07T17:30:58.034Z,7.20
2017-11-07T17:33:25.543Z,7.20
2017-11-07T17:35:54.068Z,7.30
2017-11-07T17:38:21.579Z,7.30
2017-11-07T17:40:49.152Z,7.30
2017-11-07T17:43:17.230Z,7.30
2017-11-07T17:45:44.748Z,7.30
2017-11-07T17:48:12.272Z,7.40
2017-11-07T17:50:39.911Z,7.40
2017-11-07T17:53:07.479Z,7.30
2017-11-07T17:55:35.072Z,7.30
2017-11-07T17:58:03.515Z,7.20
2017-11-07T18:00:31.138Z,7.30
2017-11-07T18:02:58.773Z,7.30
2017-11-07T18:05:26.358Z,7.30
2017-11-07T18:07:53.918Z,7.20
2017-11-07T18:10:21.460Z,7.20
2017-11-07T18:12:49.077Z,7.20
2017-11-07T18:15:17.091Z,7.20
2017-11-07T18:17:44.638Z,7.20
2017-11-07T18:20:12.430Z,7.20
2017-11-07T18:22:40.331Z,7.20
2017-11-07T18:25:08.582Z,7.20
2017-11-07T18:27:36.191Z,7.20
2017-11-07T18:30:03.919Z,7.20
2017-11-07T18:32:31.829Z,7.20
2017-11-07T18:34:59.654Z,7.20
2017-11-07T18:37:27.284Z,7.20
2017-11-07T18:39:54.961Z,7.10
2017-11-07T18:42:22.559Z,7.00
2017-11-07T18:44:50.274Z,7.00
2017-11-07T18:47:17.854Z,6.90
2017-11-07T18:49:45.431Z,7.00
2017-11-07T18:52:13.121Z,7.00
2017-11-07T18:54:40.942Z,6.90
2017-11-07T18:57:08.463Z,7.00
2017-11-07T18:59:36.055Z,7.00
2017-11-07T19:02:03.810Z,7.00
2017-11-07T19:04:31.359Z,7.00
2017-11-07T19:06:59.081Z,7.00
2017-11-07T19:09:26.703Z,7.00
2017-11-07T19:11:54.218Z,7.00
2017-11-07T19:14:21.994Z,7.00
2017-11-07T19:16:49.694Z,7.00
2017-11-07T19:19:17.292Z,7.00
2017-11-07T19:21:44.855Z,7.00
2017-11-07T19:24:12.519Z,7.00
2017-11-07T19:26:40.562Z,6.90
2017-11-07T19:29:08.185Z,7.00
2017-11-07T19:31:35.833Z,6.90
2017-11-07T19:34:03.338Z,7.00
2017-11-07T19:36:31.091Z,6.90
2017-11-07T19:38:58.844Z,6.90
2017-11-07T19:41:26.384Z,6.80
2017-11-07T19:43:53.931Z,6.80
2017-11-07T19:46:21.747Z,6.90
2017-11-07T19:48:50.292Z,6.80
2017-11-07T19:51:17.866Z,6.80
2017-11-07T19:53:45.544Z,6.80
2017-11-07T19:56:13.206Z,6.80
2017-11-07T19:58:40.755Z,6.80
2017-11-07T20:01:08.516Z,6.80
2017-11-07T20:03:36.043Z,6.80
2017-11-07T20:06:03.576Z,6.80
2017-11-07T20:08:31.511Z,6.90
2017-11-07T20:10:59.035Z,6.90
2017-11-07T20:13:26.547Z,6.90
2017-11-07T20:15:54.422Z,6.90
2017-11-07T20:18:22.059Z,6.90
2017-11-07T20:20:49.787Z,6.90
2017-11-07T20:23:17.476Z,6.90
2017-11-07T20:25:45.116Z,6.90
2017-11-07T20:28:12.755Z,6.90
2017-11-07T20:30:40.691Z,6.90
2017-11-07T20:33:09.088Z,6.90
2017-11-07T20:35:36.692Z,6.90
2017-11-07T20:38:04.315Z,6.90
2017-11-07T20:40:31.911Z,6.90
2017-11-07T20:42:59.682Z,6.90
2017-11-07T20:45:27.248Z,7.00
2017-11-07T20:47:54.820Z,7.00
2017-11-07T20:50:22.322Z,7.00
2017-11-07T20:52:50.045Z,7.00
2017-11-07T20:55:18.807Z,7.00
2017-11-07T20:57:46.602Z,6.90
2017-11-07T21:00:14.886Z,6.90
2017-11-07T21:02:43.299Z,6.90
2017-11-07T21:05:10.873Z,6.90
2017-11-07T21:07:38.810Z,6.90
2017-11-07T21:10:06.674Z,6.90
2017-11-07T21:12:34.226Z,6.90
2017-11-07T21:15:02.588Z,6.80
2017-11-07T21:17:30.259Z,6.80
2017-11-07T21:19:57.803Z,6.80
2017-11-07T21:22:25.639Z,6.80
2017-11-07T21:24:53.179Z,6.70
2017-11-07T21:27:20.703Z,6.70
2017-11-07T21:29:48.373Z,6.70
2017-11-07T21:32:15.897Z,6.70
2017-11-07T21:34:46.145Z,6.70
2017-11-07T21:37:13.735Z,6.70
2017-11-07T21:39:42.003Z,6.70
2017-11-07T21:42:10.328Z,6.70
2017-11-07T21:44:38.005Z,6.70
2017-11-07T21:47:05.547Z,6.80
2017-11-07T21:49:33.063Z,6.80
2017-11-07T21:52:00.630Z,6.70
2017-11-07T21:54:28.247Z,6.70
2017-11-07T21:56:55.766Z,6.70
2017-11-07T21:59:23.475Z,6.70
2017-11-07T22:01:51.107Z,6.70
2017-11-07T22:04:18.656Z,6.60
2017-11-07T22:06:46.696Z,6.70
2017-11-07T22:09:14.983Z,6.80
2017-11-07T22:11:42.514Z,6.80
2017-11-07T22:14:10.112Z,6.80
2017-11-07T22:16:53.054Z,6.80
2017-11-07T22:19:20.608Z,6.70
2017-11-07T22:21:50.078Z,6.80
2017-11-07T22:24:18.355Z,6.80
2017-11-07T22:26:45.979Z,6.80
2017-11-07T22:29:13.511Z,6.80
2017-11-07T22:31:40.954Z,6.80
2017-11-07T22:34:08.380Z,6.80
2017-11-07T22:36:36.617Z,6.80
2017-11-07T22:39:04.503Z,6.70
2017-11-07T22:41:32.109Z,6.70
2017-11-07T22:43:59.619Z,6.60
2017-11-07T22:46:27.519Z,6.70
2017-11-07T22:48:55.485Z,6.70
2017-11-07T22:51:23.006Z,6.70
2017-11-07T22:53:50.562Z,6.70
2017-11-07T22:56:18.179Z,6.70
2017-11-07T22:58:45.731Z,6.70
2017-11-07T23:01:13.364Z,6.80
2017-11-07T23:03:41.065Z,6.70
2017-11-07T23:06:08.651Z,6.80
2017-11-07T23:08:36.225Z,6.80
2017-11-07T23:11:03.735Z,6.80
2017-11-07T23:13:31.240Z,6.80
2017-11-07T23:15:59.374Z,6.70
2017-11-07T23:18:26.901Z,6.70
2017-11-07T23:20:54.406Z,6.70
2017-11-07T23:23:22.034Z,6.70
2017-11-07T23:25:50.343Z,6.70
2017-11-07T23:28:17.866Z,6.70
2017-11-07T23:30:45.439Z,6.70
2017-11-07T23:33:13.750Z,6.70
2017-11-07T23:35:41.258Z,6.70
2017-11-07T23:38:09.019Z,6.70
2017-11-07T23:40:36.540Z,6.60
2017-11-07T23:43:04.110Z,6.60
2017-11-07T23:45:31.662Z,6.60
2017-11-07T23:47:59.172Z,6.60
2017-11-07T23:50:26.686Z,6.60
2017-11-07T23:52:54.239Z,6.60
2017-11-07T23:55:21.755Z,6.60
2017-11-07T23:57:49.271Z,6.60
